Time,TemperatureF,DewpointF,PressureIn,WindDirection,WindDirectionDegrees,WindSpeedMPH,WindSpeedGustMPH,Humidity,HourlyPrecipIn,Conditions,Clouds,dailyrainin,SoftwareType,DateUTC
2013-09-22 00:04:00,57.6,54.1,29.37,North,0,0.0,0.0,88,0.00,,,0.00,WUHU216HW,2013-09-22 07:04:00,
2013-09-22 00:29:00,57.6,53.7,29.37,North,0,0.0,0.0,87,0.00,,,0.00,WUHU216HW,2013-09-22 07:29:00,
2013-09-22 00:34:00,57.6,53.7,29.37,North,0,0.0,0.0,87,0.00,,,0.00,WUHU216HW,2013-09-22 07:34:00,
2013-09-22 00:59:00,57.6,53.7,29.37,North,0,0.0,0.0,87,0.00,,,0.00,WUHU216HW,2013-09-22 07:59:00,
2013-09-22 01:04:00,57.6,53.7,29.37,North,0,0.0,0.0,87,0.00,,,0.00,WUHU216HW,2013-09-22 08:04:00,
2013-09-22 01:29:00,57.2,53.7,29.37,North,0,0.0,0.0,88,0.01,,,0.00,WUHU216HW,2013-09-22 08:29:00,
2013-09-22 01:34:00,57.2,53.7,29.37,North,0,0.0,0.0,88,0.01,,,0.00,WUHU216HW,2013-09-22 08:34:00,
2013-09-22 01:59:00,56.9,53.6,29.37,North,0,0.0,0.0,89,0.01,,,0.01,WUHU216HW,2013-09-22 08:59:00,
2013-09-22 02:04:00,56.9,53.6,29.37,North,0,0.0,0.0,89,0.01,,,0.01,WUHU216HW,2013-09-22 09:04:00,
2013-09-22 02:09:00,56.9,53.6,29.37,North,0,0.0,0.0,89,0.01,,,0.01,WUHU216HW,2013-09-22 09:09:00,
2013-09-22 02:30:00,56.5,53.3,29.37,North,0,0.0,0.0,89,0.00,,,0.01,WUHU216HW,2013-09-22 09:30:00,
2013-09-22 02:35:00,56.5,53.3,29.37,North,0,0.0,0.0,89,0.00,,,0.01,WUHU216HW,2013-09-22 09:35:00,
2013-09-22 03:00:00,56.5,53.3,29.37,North,0,0.0,0.0,89,0.00,,,0.01,WUHU216HW,2013-09-22 10:00:00,
2013-09-22 03:05:00,56.5,53.3,29.37,North,0,0.0,0.0,89,0.00,,,0.01,WUHU216HW,2013-09-22 10:05:00,
2013-09-22 03:30:00,56.2,52.9,29.36,North,0,0.0,0.0,89,0.00,,,0.01,WUHU216HW,2013-09-22 10:30:00,
2013-09-22 03:35:00,56.2,52.9,29.36,North,0,0.0,0.0,89,0.00,,,0.01,WUHU216HW,2013-09-22 10:35:00,
2013-09-22 04:00:00,56.0,53.1,29.35,North,0,0.0,0.0,90,0.00,,,0.01,WUHU216HW,2013-09-22 11:00:00,
2013-09-22 04:05:00,56.0,53.1,29.35,North,0,0.0,0.0,90,0.00,,,0.01,WUHU216HW,2013-09-22 11:05:00,
2013-09-22 04:30:00,55.8,52.9,29.35,North,0,0.0,0.0,90,0.00,,,0.01,WUHU216HW,2013-09-22 11:30:00,
2013-09-22 04:35:00,55.8,52.9,29.35,North,0,0.0,0.0,90,0.00,,,0.01,WUHU216HW,2013-09-22 11:35:00,
2013-09-22 05:00:00,55.4,53.1,29.35,North,0,0.0,0.0,92,0.02,,,0.01,WUHU216HW,2013-09-22 12:00:00,
2013-09-22 05:05:00,55.4,53.1,29.35,North,0,0.0,0.0,92,0.02,,,0.01,WUHU216HW,2013-09-22 12:05:00,
2013-09-22 05:30:00,54.4,51.8,29.34,North,0,0.0,0.0,91,0.06,,,0.03,WUHU216HW,2013-09-22 12:30:00,
2013-09-22 05:35:00,54.4,51.8,29.34,North,0,0.0,0.0,91,0.06,,,0.03,WUHU216HW,2013-09-22 12:35:00,
2013-09-22 06:00:00,54.2,51.8,29.35,North,0,0.0,0.0,92,0.06,,,0.07,WUHU216HW,2013-09-22 13:00:00,
2013-09-22 06:05:00,54.2,51.8,29.35,North,0,0.0,0.0,92,0.06,,,0.07,WUHU216HW,2013-09-22 13:05:00,
2013-09-22 06:30:00,54.2,51.8,29.34,North,0,0.0,0.0,92,0.06,,,0.10,WUHU216HW,2013-09-22 13:30:00,
2013-09-22 06:35:00,54.2,51.8,29.34,North,0,0.0,0.0,92,0.06,,,0.10,WUHU216HW,2013-09-22 13:35:00,
2013-09-22 07:00:00,54.0,51.7,29.34,North,0,0.0,0.0,92,0.05,,,0.13,WUHU216HW,2013-09-22 14:00:00,
2013-09-22 07:05:00,54.0,51.7,29.34,North,0,0.0,0.0,92,0.05,,,0.13,WUHU216HW,2013-09-22 14:05:00,
2013-09-22 07:30:00,54.2,52.2,29.34,North,0,0.0,0.0,93,0.02,,,0.15,WUHU216HW,2013-09-22 14:30:00,
2013-09-22 07:35:00,54.2,52.2,29.34,North,0,0.0,0.0,93,0.02,,,0.15,WUHU216HW,2013-09-22 14:35:00,
2013-09-22 08:00:00,54.4,52.4,29.34,North,0,0.0,0.0,93,0.00,,,0.15,WUHU216HW,2013-09-22 15:00:00,
2013-09-22 08:05:00,54.4,52.4,29.34,North,0,0.0,0.0,93,0.00,,,0.15,WUHU216HW,2013-09-22 15:05:00,
2013-09-22 08:30:00,54.5,52.2,29.33,North,0,0.0,0.0,92,0.00,,,0.15,WUHU216HW,2013-09-22 15:30:00,
2013-09-22 08:35:00,54.5,52.2,29.33,North,0,0.0,0.0,92,0.00,,,0.15,WUHU216HW,2013-09-22 15:35:00,
2013-09-22 09:00:00,55.4,53.1,29.32,North,0,0.0,0.0,92,0.01,,,0.15,WUHU216HW,2013-09-22 16:00:00,
2013-09-22 09:05:00,55.4,53.1,29.32,North,0,0.0,0.0,92,0.01,,,0.15,WUHU216HW,2013-09-22 16:05:00,
2013-09-22 09:30:00,56.3,54.0,29.30,North,0,0.0,0.0,92,0.01,,,0.17,WUHU216HW,2013-09-22 16:30:00,
2013-09-22 09:35:00,56.3,54.0,29.30,North,0,0.0,0.0,92,0.01,,,0.17,WUHU216HW,2013-09-22 16:35:00,
2013-09-22 10:00:00,56.9,54.3,29.29,North,0,0.0,0.0,91,0.00,,,0.17,WUHU216HW,2013-09-22 17:00:00,
2013-09-22 10:05:00,56.9,54.3,29.29,North,0,0.0,0.0,91,0.00,,,0.17,WUHU216HW,2013-09-22 17:05:00,
2013-09-22 10:10:00,56.9,54.3,29.29,North,0,0.0,0.0,91,0.00,,,0.17,WUHU216HW,2013-09-22 17:10:00,
2013-09-22 10:30:00,57.4,54.2,29.27,North,0,0.0,0.0,89,0.00,,,0.17,WUHU216HW,2013-09-22 17:30:00,
2013-09-22 10:35:00,57.4,54.2,29.27,North,0,0.0,0.0,89,0.00,,,0.17,WUHU216HW,2013-09-22 17:35:00,
2013-09-22 11:00:00,58.0,54.7,29.26,North,0,0.0,0.0,89,0.00,,,0.17,WUHU216HW,2013-09-22 18:00:00,
2013-09-22 11:05:00,58.0,54.7,29.26,North,0,0.0,0.0,89,0.00,,,0.17,WUHU216HW,2013-09-22 18:05:00,
2013-09-22 11:10:00,58.0,54.7,29.26,North,0,0.0,0.0,89,0.00,,,0.17,WUHU216HW,2013-09-22 18:10:00,
2013-09-22 11:30:00,58.0,54.5,29.25,North,0,0.0,0.0,88,0.00,,,0.17,WUHU216HW,2013-09-22 18:30:00,
2013-09-22 11:35:00,58.0,54.5,29.25,North,0,0.0,0.0,88,0.00,,,0.17,WUHU216HW,2013-09-22 18:35:00,
2013-09-22 12:00:00,57.4,53.6,29.25,North,0,0.0,0.0,87,0.00,,,0.17,WUHU216HW,2013-09-22 19:00:00,
2013-09-22 12:05:00,57.4,53.6,29.25,North,0,0.0,0.0,87,0.00,,,0.17,WUHU216HW,2013-09-22 19:05:00,
2013-09-22 12:10:00,57.4,53.6,29.25,North,0,0.0,0.0,87,0.00,,,0.17,WUHU216HW,2013-09-22 19:10:00,
2013-09-22 12:30:00,57.1,53.6,29.25,North,0,0.0,0.0,88,0.01,,,0.17,WUHU216HW,2013-09-22 19:30:00,
2013-09-22 12:35:00,57.1,53.6,29.25,North,0,0.0,0.0,88,0.01,,,0.17,WUHU216HW,2013-09-22 19:35:00,
2013-09-22 13:00:00,56.9,53.6,29.25,North,0,0.0,0.0,89,0.02,,,0.17,WUHU216HW,2013-09-22 20:00:00,
2013-09-22 13:05:00,56.9,53.6,29.25,North,0,0.0,0.0,89,0.02,,,0.19,WUHU216HW,2013-09-22 20:05:00,
2013-09-22 13:30:00,55.6,52.4,29.25,North,0,0.0,0.0,89,0.01,,,0.19,WUHU216HW,2013-09-22 20:30:00,
2013-09-22 13:35:00,55.6,52.4,29.25,North,0,0.0,0.0,89,0.01,,,0.19,WUHU216HW,2013-09-22 20:35:00,
2013-09-22 14:00:00,55.1,52.5,29.25,North,0,0.0,0.0,91,0.00,,,0.19,WUHU216HW,2013-09-22 21:00:00,
2013-09-22 14:05:00,55.1,52.5,29.25,North,0,0.0,0.0,91,0.00,,,0.19,WUHU216HW,2013-09-22 21:05:00,
2013-09-22 14:30:00,57.1,55.1,29.26,North,0,0.0,0.0,93,0.05,,,0.19,WUHU216HW,2013-09-22 21:30:00,
2013-09-22 14:35:00,57.1,55.1,29.26,North,0,0.0,0.0,93,0.05,,,0.19,WUHU216HW,2013-09-22 21:35:00,
2013-09-22 15:00:00,58.7,55.8,29.26,North,0,0.0,0.0,90,0.07,,,0.24,WUHU216HW,2013-09-22 22:00:00,
2013-09-22 15:05:00,58.7,55.8,29.26,North,0,0.0,0.0,90,0.07,,,0.24,WUHU216HW,2013-09-22 22:05:00,
2013-09-22 15:30:00,58.9,56.0,29.26,North,0,0.0,0.0,90,0.03,,,0.26,WUHU216HW,2013-09-22 22:30:00,
2013-09-22 15:35:00,58.9,56.0,29.26,North,0,0.0,0.0,90,0.03,,,0.26,WUHU216HW,2013-09-22 22:35:00,
2013-09-22 16:00:00,59.6,56.1,29.27,North,0,0.0,0.0,88,0.03,,,0.26,WUHU216HW,2013-09-22 23:00:00,
2013-09-22 16:05:00,59.6,56.1,29.27,North,0,0.0,0.0,88,0.03,,,0.26,WUHU216HW,2013-09-22 23:05:00,
2013-09-22 16:30:00,60.1,56.0,29.27,North,0,0.0,0.0,86,0.04,,,0.29,WUHU216HW,2013-09-22 23:30:00,
2013-09-22 16:35:00,60.1,56.0,29.27,North,0,0.0,0.0,86,0.04,,,0.29,WUHU216HW,2013-09-22 23:35:00,
2013-09-22 17:00:00,59.9,55.4,29.28,North,0,0.0,0.0,85,0.03,,,0.31,WUHU216HW,2013-09-23 00:00:00,
2013-09-22 17:05:00,59.9,55.4,29.28,North,0,0.0,0.0,85,0.03,,,0.31,WUHU216HW,2013-09-23 00:05:00,
2013-09-22 17:30:00,58.7,55.2,29.29,North,0,0.0,0.0,88,0.02,,,0.32,WUHU216HW,2013-09-23 00:30:00,
2013-09-22 17:35:00,58.7,55.2,29.29,North,0,0.0,0.0,88,0.02,,,0.32,WUHU216HW,2013-09-23 00:35:00,
2013-09-22 18:00:00,57.4,54.5,29.30,North,0,0.0,0.0,90,0.02,,,0.33,WUHU216HW,2013-09-23 01:00:00,
2013-09-22 18:05:00,57.4,54.5,29.30,North,0,0.0,0.0,90,0.02,,,0.33,WUHU216HW,2013-09-23 01:05:00,
2013-09-22 18:30:00,57.2,54.4,29.31,North,0,0.0,0.0,90,0.03,,,0.34,WUHU216HW,2013-09-23 01:30:00,
2013-09-22 18:35:00,57.2,54.4,29.31,North,0,0.0,0.0,90,0.03,,,0.34,WUHU216HW,2013-09-23 01:35:00,
2013-09-22 19:00:00,56.0,52.7,29.32,North,0,0.0,0.0,89,0.03,,,0.36,WUHU216HW,2013-09-23 02:00:00,
2013-09-22 19:05:00,56.0,52.7,29.32,North,0,0.0,0.0,89,0.03,,,0.36,WUHU216HW,2013-09-23 02:05:00,
2013-09-22 19:30:00,55.1,52.2,29.33,North,0,0.0,0.0,90,0.02,,,0.37,WUHU216HW,2013-09-23 02:30:00,
2013-09-22 19:35:00,55.1,52.2,29.33,North,0,0.0,0.0,90,0.02,,,0.37,WUHU216HW,2013-09-23 02:35:00,
2013-09-22 20:00:00,54.5,51.9,29.34,North,0,0.0,0.0,91,0.02,,,0.38,WUHU216HW,2013-09-23 03:00:00,
2013-09-22 20:05:00,54.4,51.8,29.34,North,0,0.0,0.0,91,0.02,,,0.39,WUHU216HW,2013-09-23 03:05:00,
2013-09-22 20:10:00,54.4,51.8,29.34,North,0,0.0,0.0,91,0.02,,,0.39,WUHU216HW,2013-09-23 03:10:00,
2013-09-22 20:30:00,54.0,51.7,29.35,North,0,0.0,0.0,92,0.02,,,0.39,WUHU216HW,2013-09-23 03:30:00,
2013-09-22 20:35:00,54.0,51.7,29.35,North,0,0.0,0.0,92,0.02,,,0.39,WUHU216HW,2013-09-23 03:35:00,
2013-09-22 21:00:00,53.8,51.5,29.36,North,0,0.0,0.0,92,0.02,,,0.40,WUHU216HW,2013-09-23 04:00:00,
2013-09-22 21:01:00,53.8,51.5,29.36,North,0,0.0,0.0,92,0.02,,,0.41,WUHU216HW,2013-09-23 04:01:00,
2013-09-22 21:06:00,53.8,51.5,29.36,North,0,0.0,0.0,92,0.02,,,0.41,WUHU216HW,2013-09-23 04:06:00,
2013-09-22 21:30:00,53.6,51.3,29.37,North,0,0.0,0.0,92,0.01,,,0.41,WUHU216HW,2013-09-23 04:30:00,
2013-09-22 21:35:00,53.6,51.3,29.37,North,0,0.0,0.0,92,0.01,,,0.41,WUHU216HW,2013-09-23 04:35:00,
2013-09-22 22:00:00,53.5,51.5,29.38,North,0,0.0,0.0,93,0.01,,,0.41,WUHU216HW,2013-09-23 05:00:00,
2013-09-22 22:05:00,53.5,51.5,29.38,North,0,0.0,0.0,93,0.01,,,0.42,WUHU216HW,2013-09-23 05:05:00,
2013-09-22 22:10:00,53.5,51.5,29.38,North,0,0.0,0.0,93,0.01,,,0.42,WUHU216HW,2013-09-23 05:10:00,
2013-09-22 22:30:00,53.8,51.9,29.39,North,0,0.0,0.0,93,0.02,,,0.42,WUHU216HW,2013-09-23 05:30:00,
2013-09-22 22:35:00,53.8,51.9,29.39,North,0,0.0,0.0,93,0.02,,,0.42,WUHU216HW,2013-09-23 05:35:00,
2013-09-22 23:00:00,54.2,52.5,29.39,North,0,0.0,0.0,94,0.02,,,0.43,WUHU216HW,2013-09-23 06:00:00,
2013-09-22 23:05:00,54.2,52.5,29.39,North,0,0.0,0.0,94,0.02,,,0.44,WUHU216HW,2013-09-23 06:05:00,
2013-09-22 23:10:00,54.2,52.5,29.39,North,0,0.0,0.0,94,0.02,,,0.44,WUHU216HW,2013-09-23 06:10:00,
2013-09-22 23:30:00,54.4,52.4,29.40,North,0,0.0,0.0,93,0.02,,,0.44,WUHU216HW,2013-09-23 06:30:00,
2013-09-22 23:35:00,54.4,52.4,29.40,North,0,0.0,0.0,93,0.02,,,0.44,WUHU216HW,2013-09-23 06:35:00,